Time;durP1;ratioP1;P1;durP2;ratioP2;P2;SDS_P1;SDS_P2;PMS_P1;PMS_P2;Temp;Humidity;BMP_temperature;BMP_pressure;BME280_temperature;BME280_humidity;BME280_pressure;Samples;Min_cycle;Max_cycle;Signal;HPM_P1;HPM_P2
2021/12/18 00:00:57;;;;;;;;;;;;;;;;;;4860242;29;19919;-82
2021/12/18 00:03:23;;;;;;;;;;;;;;;;;;4860835;29;19912;-82
2021/12/18 00:05:49;;;;;;;;;;;;;;;;;;4875140;29;20384;-82
2021/12/18 00:08:15;;;;;;;;;;;;;;;;;;4861793;29;19912;-82
2021/12/18 00:10:41;;;;;;;;;;;;;;;;;;4861411;29;19930;-81
2021/12/18 00:13:07;;;;;;;;;;;;;;;;;;4861769;29;19931;-82
2021/12/18 00:15:33;;;;;;;;;;;;;;;;;;4862150;29;19947;-82
2021/12/18 00:17:58;;;;;;;;;;;;;;;;;;4861599;29;20357;-81
2021/12/18 00:20:26;;;;;;;;;;;;;;;;;;4859167;29;19914;-81
2021/12/18 00:22:52;;;;;;;;;;;;;;;;;;4861211;29;19966;-82
2021/12/18 00:25:18;;;;;;;;;;;;;;;;;;4843688;29;20330;-81
2021/12/18 00:27:44;;;;;;;;;;;;;;;;;;4842966;29;19914;-81
2021/12/18 00:30:09;;;;;;;;;;;;;;;;;;4843168;29;19908;-82
2021/12/18 00:32:35;;;;;;;;;;;;;;;;;;4842717;29;19912;-81
2021/12/18 00:35:01;;;;;;;;;;;;;;;;;;4849969;29;19912;-81
2021/12/18 00:37:27;;;;;;;;;;;;;;;;;;4860687;29;19991;-81
2021/12/18 00:39:58;;;;;;;;;;;;;;;;;;4861158;29;19908;-81
2021/12/18 00:42:38;;;;;;;;;;;;;;;;;;4860684;29;20372;-82
2021/12/18 00:45:04;;;;;;;;;;;;;;;;;;4861306;29;19952;-82
2021/12/18 00:47:30;;;;;;;;;;;;;;;;;;4860917;29;19955;-82
2021/12/18 00:49:56;;;;;;;;;;;;;;;;;;4861146;29;20453;-82
2021/12/18 00:52:23;;;;;;;;;;;;;;;;;;4860741;29;19952;-82
2021/12/18 00:54:49;;;;;;;;;;;;;;;;;;4861044;29;19940;-82
2021/12/18 00:57:15;;;;;;;;;;;;;;;;;;4859939;29;20405;-82
2021/12/18 00:59:41;;;;;;;;;;;;;;;;;;4860368;29;20007;-82
2021/12/18 01:02:07;;;;;;;;;;;;;;;;;;4860747;29;20412;-82
2021/12/18 01:04:33;;;;;;;;;;;;;;;;;;4860593;29;19920;-82
2021/12/18 01:06:59;;;;;;;;;;;;;;;;;;4859853;29;19908;-82
2021/12/18 01:09:44;;;;;;;;;;;;;;;;;;4859245;29;19912;-82
2021/12/18 01:12:10;;;;;;;;;;;;;;;;;;4860633;29;19936;-82
2021/12/18 01:15:11;;;;;;;;;;;;;;;;;;4860574;29;19936;-81
2021/12/18 01:22:48;;;;;;;;;;;;;;;;;;4841981;29;19915;-82
2021/12/18 01:25:14;;;;;;;;;;;;;;;;;;4851235;29;19912;-82
2021/12/18 01:27:40;;;;;;;;;;;;;;;;;;4860251;29;19924;-82
2021/12/18 01:30:06;;;;;;;;;;;;;;;;;;4860019;29;20352;-82
2021/12/18 01:32:32;;;;;;;;;;;;;;;;;;4860865;29;19915;-82
2021/12/18 01:34:57;;;;;;;;;;;;;;;;;;4860193;29;19908;-82
2021/12/18 01:37:23;;;;;;;;;;;;;;;;;;4874738;29;19911;-82
2021/12/18 01:39:52;;;;;;;;;;;;;;;;;;4859428;29;19919;-82
2021/12/18 01:53:06;;;;;;;;;;;;;;;;;;4860411;29;20006;-82
2021/12/18 01:55:32;;;;;;;;;;;;;;;;;;4860237;29;19908;-82
2021/12/18 01:57:58;;;;;;;;;;;;;;;;;;4859690;29;19927;-82
2021/12/18 02:00:24;;;;;;;;;;;;;;;;;;4860669;29;20425;-82
2021/12/18 02:02:50;;;;;;;;;;;;;;;;;;4859060;29;19972;-82
2021/12/18 02:05:16;;;;;;;;;;;;;;;;;;4854983;29;20035;-82
2021/12/18 02:07:42;;;;;;;;;;;;;;;;;;4841428;29;20365;-82
2021/12/18 02:10:14;;;;;;;;;;;;;;;;;;4841620;29;19912;-82
2021/12/18 02:12:58;;;;;;;;;;;;;;;;;;4841578;29;20373;-82
2021/12/18 02:20:52;;;;;;;;;;;;;;;;;;4853299;29;20360;-82
2021/12/18 02:23:18;;;;;;;;;;;;;;;;;;4859932;29;19955;-82
2021/12/18 02:25:44;;;;;;;;;;;;;;;;;;4860070;29;19999;-82
2021/12/18 02:28:28;;;;;;;;;;;;;;;;;;4859838;29;20344;-82
2021/12/18 02:30:54;;;;;;;;;;;;;;;;;;4859048;29;19904;-82
2021/12/18 02:33:20;;;;;;;;;;;;;;;;;;4860217;29;19914;-81
2021/12/18 02:35:51;;;;;;;;;;;;;;;;;;4859670;29;19910;-81
2021/12/18 02:38:19;;;;;;;;;;;;;;;;;;4859506;29;19935;-82
2021/12/18 02:43:17;;;;;;;;;;;;;;;;;;4861165;29;20291;-82
2021/12/18 02:45:43;;;;;;;;;;;;;;;;;;4861272;29;19916;-82
2021/12/18 02:48:09;;;;;;;;;;;;;;;;;;4863029;29;20007;-82
2021/12/18 02:50:35;;;;;;;;;;;;;;;;;;4863367;29;19911;-81
2021/12/18 02:53:01;;;;;;;;;;;;;;;;;;4863005;29;19995;-81
2021/12/18 02:55:27;;;;;;;;;;;;;;;;;;4861876;29;19916;-81
2021/12/18 02:57:53;;;;;;;;;;;;;;;;;;4863050;29;19926;-81
2021/12/18 03:00:20;;;;;;;;;;;;;;;;;;4853891;29;20327;-82
2021/12/18 03:02:46;;;;;;;;;;;;;;;;;;4862447;29;19947;-82
2021/12/18 03:05:19;;;;;;;;;;;;;;;;;;4862898;29;19950;-82
2021/12/18 03:07:46;;;;;;;;;;;;;;;;;;4862914;29;19911;-81
2021/12/18 03:24:08;;;;;;;;;;;;;;;;;;4841772;29;19904;-82
2021/12/18 03:26:34;;;;;;;;;;;;;;;;;;4842026;29;19908;-82
2021/12/18 03:29:00;;;;;;;;;;;;;;;;;;4841718;29;19915;-82
2021/12/18 03:31:26;;;;;;;;;;;;;;;;;;4842321;29;19909;-82
2021/12/18 03:33:52;;;;;;;;;;;;;;;;;;4841788;29;20023;-82
2021/12/18 03:36:18;;;;;;;;;;;;;;;;;;4841012;29;20417;-82
2021/12/18 03:38:43;;;;;;;;;;;;;;;;;;4841175;29;20016;-82
2021/12/18 03:41:09;;;;;;;;;;;;;;;;;;4841788;29;19908;-82
2021/12/18 03:43:35;;;;;;;;;;;;;;;;;;4841521;29;20269;-82
2021/12/18 03:46:01;;;;;;;;;;;;;;;;;;4841927;29;19915;-82
2021/12/18 03:48:27;;;;;;;;;;;;;;;;;;4841659;29;19912;-82
2021/12/18 03:50:53;;;;;;;;;;;;;;;;;;4846301;29;19916;-82
2021/12/18 03:53:19;;;;;;;;;;;;;;;;;;4847106;29;19912;-82
2021/12/18 03:55:45;;;;;;;;;;;;;;;;;;4841559;29;19913;-82
2021/12/18 03:58:11;;;;;;;;;;;;;;;;;;4840767;29;19947;-82
2021/12/18 04:00:37;;;;;;;;;;;;;;;;;;4860869;29;19916;-82
2021/12/18 04:03:03;;;;;;;;;;;;;;;;;;4862145;29;19908;-82
2021/12/18 04:05:29;;;;;;;;;;;;;;;;;;4861939;29;20309;-82
2021/12/18 04:08:08;;;;;;;;;;;;;;;;;;4861689;29;19908;-82
2021/12/18 04:10:34;;;;;;;;;;;;;;;;;;4860387;29;20388;-82
2021/12/18 04:13:00;;;;;;;;;;;;;;;;;;4861473;29;20003;-82
2021/12/18 04:15:26;;;;;;;;;;;;;;;;;;4861787;29;19908;-82
2021/12/18 04:17:52;;;;;;;;;;;;;;;;;;4862020;29;19949;-82
2021/12/18 04:20:17;;;;;;;;;;;;;;;;;;4861520;29;19915;-82
2021/12/18 04:22:43;;;;;;;;;;;;;;;;;;4861800;29;20334;-82
2021/12/18 04:25:09;;;;;;;;;;;;;;;;;;4860381;29;20087;-82
2021/12/18 04:27:35;;;;;;;;;;;;;;;;;;4860913;29;19947;-82
2021/12/18 04:30:01;;;;;;;;;;;;;;;;;;4861523;29;19908;-82
2021/12/18 04:32:27;;;;;;;;;;;;;;;;;;4859909;29;19927;-82
2021/12/18 04:34:53;;;;;;;;;;;;;;;;;;4861959;29;19908;-82
2021/12/18 04:37:20;;;;;;;;;;;;;;;;;;4860089;29;19919;-82
2021/12/18 04:39:45;;;;;;;;;;;;;;;;;;4843284;29;19969;-82
2021/12/18 04:42:11;;;;;;;;;;;;;;;;;;4844944;29;19916;-82
2021/12/18 04:44:37;;;;;;;;;;;;;;;;;;4861584;29;19919;-82
2021/12/18 04:47:03;;;;;;;;;;;;;;;;;;4861134;29;19911;-82
2021/12/18 04:49:29;;;;;;;;;;;;;;;;;;4861154;29;20369;-82
2021/12/18 04:51:55;;;;;;;;;;;;;;;;;;4860902;29;19912;-82
2021/12/18 04:54:21;;;;;;;;;;;;;;;;;;4861037;29;19915;-82
2021/12/18 04:56:47;;;;;;;;;;;;;;;;;;4859422;29;19948;-81
2021/12/18 04:59:13;;;;;;;;;;;;;;;;;;4844007;29;20061;-81
2021/12/18 05:01:40;;;;;;;;;;;;;;;;;;4860392;29;20452;-82
2021/12/18 05:04:09;;;;;;;;;;;;;;;;;;4860950;29;19959;-82
2021/12/18 05:06:36;;;;;;;;;;;;;;;;;;4860656;29;19915;-82
2021/12/18 05:09:02;;;;;;;;;;;;;;;;;;4853789;29;19965;-82
2021/12/18 05:11:28;;;;;;;;;;;;;;;;;;4842165;29;19917;-82
2021/12/18 05:13:54;;;;;;;;;;;;;;;;;;4842428;29;19909;-82
2021/12/18 05:16:21;;;;;;;;;;;;;;;;;;4842000;29;19966;-82
2021/12/18 05:18:47;;;;;;;;;;;;;;;;;;4851740;29;19948;-82
2021/12/18 05:21:13;;;;;;;;;;;;;;;;;;4859196;29;20389;-82
2021/12/18 05:23:39;;;;;;;;;;;;;;;;;;4860677;29;19908;-82
2021/12/18 05:26:04;;;;;;;;;;;;;;;;;;4860105;29;19919;-82
2021/12/18 05:28:30;;;;;;;;;;;;;;;;;;4860499;29;19912;-82
2021/12/18 05:30:56;;;;;;;;;;;;;;;;;;4860713;29;20355;-82
2021/12/18 05:33:22;;;;;;;;;;;;;;;;;;4859985;29;19914;-82
2021/12/18 05:35:48;;;;;;;;;;;;;;;;;;4859678;29;19912;-82
2021/12/18 05:38:14;;;;;;;;;;;;;;;;;;4860267;29;19912;-82
2021/12/18 05:40:40;;;;;;;;;;;;;;;;;;4860124;29;19908;-82
2021/12/18 05:43:06;;;;;;;;;;;;;;;;;;4858803;29;19980;-82
2021/12/18 05:45:32;;;;;;;;;;;;;;;;;;4860077;29;19976;-82
2021/12/18 05:47:57;;;;;;;;;;;;;;;;;;4860290;29;19956;-83
2021/12/18 05:50:27;;;;;;;;;;;;;;;;;;4860339;29;19964;-82
2021/12/18 05:52:54;;;;;;;;;;;;;;;;;;4860249;29;20003;-82
2021/12/18 05:55:22;;;;;;;;;;;;;;;;;;4859694;29;19999;-82
2021/12/18 05:57:48;;;;;;;;;;;;;;;;;;4844019;29;20350;-82
2021/12/18 06:00:14;;;;;;;;;;;;;;;;;;4859589;29;19912;-82
2021/12/18 06:02:40;;;;;;;;;;;;;;;;;;4860459;29;19956;-82
2021/12/18 06:05:07;;;;;;;;;;;;;;;;;;4859843;29;19959;-82
2021/12/18 06:07:43;;;;;;;;;;;;;;;;;;4860114;29;20384;-82
2021/12/18 06:10:09;;;;;;;;;;;;;;;;;;4859646;29;20007;-82
2021/12/18 06:12:35;;;;;;;;;;;;;;;;;;4858135;29;19999;-82
2021/12/18 06:15:01;;;;;;;;;;;;;;;;;;4860511;29;19946;-82
2021/12/18 06:17:27;;;;;;;;;;;;;;;;;;4861881;29;19924;-82
2021/12/18 06:19:53;;;;;;;;;;;;;;;;;;4863773;29;19912;-83
2021/12/18 06:22:19;;;;;;;;;;;;;;;;;;4858347;29;19909;-82
2021/12/18 06:24:44;;;;;;;;;;;;;;;;;;4845234;29;19919;-83
2021/12/18 06:27:10;;;;;;;;;;;;;;;;;;4843752;29;20323;-83
2021/12/18 06:29:39;;;;;;;;;;;;;;;;;;4845180;29;19916;-83
2021/12/18 06:32:04;;;;;;;;;;;;;;;;;;4849446;29;19912;-82
2021/12/18 06:34:30;;;;;;;;;;;;;;;;;;4862968;29;20392;-82
2021/12/18 06:36:56;;;;;;;;;;;;;;;;;;4863886;29;19912;-80
2021/12/18 06:39:22;;;;;;;;;;;;;;;;;;4862949;29;19912;-82
2021/12/18 06:41:48;;;;;;;;;;;;;;;;;;4863374;29;19916;-81
2021/12/18 06:44:14;;;;;;;;;;;;;;;;;;4863238;29;19915;-81
2021/12/18 06:46:40;;;;;;;;;;;;;;;;;;4863607;29;19908;-80
2021/12/18 06:49:09;;;;;;;;;;;;;;;;;;4862875;29;19909;-80
2021/12/18 06:51:35;;;;;;;;;;;;;;;;;;4862233;29;19912;-79
2021/12/18 06:54:01;;;;;;;;;;;;;;;;;;4862848;29;19916;-80
2021/12/18 06:56:27;;;;;;;;;;;;;;;;;;4853200;29;19916;-80
2021/12/18 06:58:53;;;;;;;;;;;;;;;;;;4862709;29;20012;-79
2021/12/18 07:01:18;;;;;;;;;;;;;;;;;;4862733;29;20284;-80
2021/12/18 07:03:44;;;;;;;;;;;;;;;;;;4863036;29;20392;-80
2021/12/18 07:06:10;;;;;;;;;;;;;;;;;;4862524;29;19915;-80
2021/12/18 07:08:36;;;;;;;;;;;;;;;;;;4861867;29;19916;-80
2021/12/18 07:11:02;;;;;;;;;;;;;;;;;;4862636;29;20387;-77
2021/12/18 07:13:29;;;;;;;;;;;;;;;;;;4862677;29;19912;-78
2021/12/18 07:15:55;;;;;;;;;;;;;;;;;;4862878;29;20003;-77
2021/12/18 07:18:20;;;;;;;;;;;;;;;;;;4862691;29;20003;-78
2021/12/18 07:20:46;;;;;;;;;;;;;;;;;;4862396;29;19918;-78
2021/12/18 07:23:12;;;;;;;;;;;;;;;;;;4862624;29;19912;-78
2021/12/18 07:25:38;;;;;;;;;;;;;;;;;;4862236;29;19908;-78
2021/12/18 07:28:04;;;;;;;;;;;;;;;;;;4861094;29;19912;-77
2021/12/18 07:30:30;;;;;;;;;;;;;;;;;;4862037;29;19916;-77
2021/12/18 07:32:56;;;;;;;;;;;;;;;;;;4862674;29;19908;-78
2021/12/18 07:35:22;;;;;;;;;;;;;;;;;;4862376;29;20371;-78
2021/12/18 07:37:48;;;;;;;;;;;;;;;;;;4860654;29;19919;-77
2021/12/18 07:40:13;;;;;;;;;;;;;;;;;;4858757;29;19920;-78
2021/12/18 07:42:39;;;;;;;;;;;;;;;;;;4862239;29;20372;-80
2021/12/18 07:45:05;;;;;;;;;;;;;;;;;;4862204;29;19912;-85
2021/12/18 07:47:31;;;;;;;;;;;;;;;;;;4861367;29;19912;-78
2021/12/18 07:49:57;;;;;;;;;;;;;;;;;;4862223;29;19949;-78
2021/12/18 07:52:24;;;;;;;;;;;;;;;;;;4862006;29;19991;-77
2021/12/18 07:54:50;;;;;;;;;;;;;;;;;;4862247;29;20003;-78
2021/12/18 07:57:16;;;;;;;;;;;;;;;;;;4861839;29;20396;-78
2021/12/18 07:59:42;;;;;;;;;;;;;;;;;;4861309;29;20373;-77
2021/12/18 08:02:08;;;;;;;;;;;;;;;;;;4861712;29;19919;-77
2021/12/18 08:04:34;;;;;;;;;;;;;;;;;;4860348;29;19919;-77
2021/12/18 08:07:00;;;;;;;;;;;;;;;;;;4874352;29;19911;-77
2021/12/18 08:09:25;;;;;;;;;;;;;;;;;;4853529;29;19951;-77
2021/12/18 08:11:51;;;;;;;;;;;;;;;;;;4845245;29;19914;-77
2021/12/18 08:14:17;;;;;;;;;;;;;;;;;;4854297;29;19978;-77
2021/12/18 08:16:43;;;;;;;;;;;;;;;;;;4859552;29;19908;-76
2021/12/18 08:19:09;;;;;;;;;;;;;;;;;;4859124;29;19915;-76
2021/12/18 08:21:35;;;;;;;;;;;;;;;;;;4857018;29;20413;-76
2021/12/18 08:24:01;;;;;;;;;;;;;;;;;;4859625;29;19916;-76
2021/12/18 08:26:27;;;;;;;;;;;;;;;;;;4852080;29;19915;-76
2021/12/18 08:28:53;;;;;;;;;;;;;;;;;;4855026;29;19914;-78
2021/12/18 08:31:18;;;;;;;;;;;;;;;;;;4869488;29;20428;-81
2021/12/18 08:33:44;;;;;;;;;;;;;;;;;;4858552;29;19908;-78
2021/12/18 08:36:10;;;;;;;;;;;;;;;;;;4859263;29;19964;-78
2021/12/18 08:38:36;;;;;;;;;;;;;;;;;;4854318;29;19920;-77
2021/12/18 08:41:02;;;;;;;;;;;;;;;;;;4853114;29;19915;-76
2021/12/18 08:43:28;;;;;;;;;;;;;;;;;;4858897;29;20342;-76
2021/12/18 08:45:54;;;;;;;;;;;;;;;;;;4871990;29;20313;-76
2021/12/18 08:48:21;;;;;;;;;;;;;;;;;;4857206;29;19919;-78
2021/12/18 08:50:47;;;;;;;;;;;;;;;;;;4860944;29;19963;-76
2021/12/18 08:53:13;;;;;;;;;;;;;;;;;;4860985;29;19995;-77
2021/12/18 08:55:39;;;;;;;;;;;;;;;;;;4860016;29;19960;-77
2021/12/18 08:58:05;;;;;;;;;;;;;;;;;;4859998;29;20513;-77
2021/12/18 09:00:32;;;;;;;;;;;;;;;;;;4860349;29;19955;-77
2021/12/18 09:03:00;;;;;;;;;;;;;;;;;;4858801;29;19912;-76
2021/12/18 09:05:26;;;;;;;;;;;;;;;;;;4860777;29;19912;-77
2021/12/18 09:07:52;;;;;;;;;;;;;;;;;;4859610;29;20774;-76
2021/12/18 09:10:18;;;;;;;;;;;;;;;;;;4860612;29;19912;-77
2021/12/18 09:12:44;;;;;;;;;;;;;;;;;;4860143;29;19912;-82
2021/12/18 09:15:10;;;;;;;;;;;;;;;;;;4858747;29;19912;-83
2021/12/18 09:17:36;;;;;;;;;;;;;;;;;;4858936;29;19961;-83
2021/12/18 09:20:01;;;;;;;;;;;;;;;;;;4843475;29;19969;-82
2021/12/18 09:22:27;;;;;;;;;;;;;;;;;;4849497;29;20405;-76
2021/12/18 09:24:53;;;;;;;;;;;;;;;;;;4859987;29;19919;-80
2021/12/18 09:27:20;;;;;;;;;;;;;;;;;;4860525;29;19912;-77
2021/12/18 09:29:45;;;;;;;;;;;;;;;;;;4860064;29;19912;-79
2021/12/18 09:32:11;;;;;;;;;;;;;;;;;;4858248;29;19983;-79
2021/12/18 09:34:37;;;;;;;;;;;;;;;;;;4855094;29;19916;-79
2021/12/18 09:37:03;;;;;;;;;;;;;;;;;;4868391;29;19915;-80
2021/12/18 09:39:29;;;;;;;;;;;;;;;;;;4859672;29;19915;-82
2021/12/18 09:41:55;;;;;;;;;;;;;;;;;;4859482;29;20361;-84
2021/12/18 09:44:21;;;;;;;;;;;;;;;;;;4859799;29;19919;-78
2021/12/18 09:46:47;;;;;;;;;;;;;;;;;;4859473;29;19952;-78
2021/12/18 09:49:13;;;;;;;;;;;;;;;;;;4860080;29;20380;-79
2021/12/18 09:51:38;;;;;;;;;;;;;;;;;;4859974;29;19915;-79
2021/12/18 09:54:04;;;;;;;;;;;;;;;;;;4858799;29;19980;-79
2021/12/18 09:56:30;;;;;;;;;;;;;;;;;;4859511;29;19920;-79
2021/12/18 09:58:56;;;;;;;;;;;;;;;;;;4859945;29;19912;-78
2021/12/18 10:01:22;;;;;;;;;;;;;;;;;;4859406;29;19912;-78
2021/12/18 10:03:51;;;;;;;;;;;;;;;;;;4857089;29;19912;-78
2021/12/18 10:06:17;;;;;;;;;;;;;;;;;;4859301;29;19912;-78
2021/12/18 10:08:43;;;;;;;;;;;;;;;;;;4854381;29;19912;-78
2021/12/18 10:11:09;;;;;;;;;;;;;;;;;;4855579;29;19921;-78
2021/12/18 10:13:35;;;;;;;;;;;;;;;;;;4859282;29;19916;-78
2021/12/18 10:16:01;;;;;;;;;;;;;;;;;;4858125;29;19912;-78
2021/12/18 10:18:26;;;;;;;;;;;;;;;;;;4845592;29;19916;-79
2021/12/18 10:20:52;;;;;;;;;;;;;;;;;;4860038;29;19908;-78
2021/12/18 10:23:18;;;;;;;;;;;;;;;;;;4859827;29;19931;-77
2021/12/18 10:25:44;;;;;;;;;;;;;;;;;;4859950;29;19907;-80
2021/12/18 10:28:16;;;;;;;;;;;;;;;;;;4859790;29;19912;-77
2021/12/18 10:30:42;;;;;;;;;;;;;;;;;;4859996;29;19915;-78
2021/12/18 10:33:08;;;;;;;;;;;;;;;;;;4858688;29;19961;-78
2021/12/18 10:35:34;;;;;;;;;;;;;;;;;;4858746;29;20337;-78
2021/12/18 10:38:00;;;;;;;;;;;;;;;;;;4859548;29;19961;-78
2021/12/18 10:40:26;;;;;;;;;;;;;;;;;;4859718;29;19908;-77
2021/12/18 10:42:53;;;;;;;;;;;;;;;;;;4860006;29;20316;-78
2021/12/18 10:45:18;;;;;;;;;;;;;;;;;;4859408;29;20151;-78
2021/12/18 10:47:44;;;;;;;;;;;;;;;;;;4858772;29;20275;-78
2021/12/18 10:50:10;;;;;;;;;;;;;;;;;;4859693;29;19916;-76
2021/12/18 10:52:36;;;;;;;;;;;;;;;;;;4858637;29;19960;-78
2021/12/18 10:55:02;;;;;;;;;;;;;;;;;;4859476;29;19908;-78
2021/12/18 10:57:28;;;;;;;;;;;;;;;;;;4859569;29;19991;-79
2021/12/18 10:59:55;;;;;;;;;;;;;;;;;;4859361;29;20410;-79
2021/12/18 11:02:21;;;;;;;;;;;;;;;;;;4859486;29;19939;-78
2021/12/18 11:04:47;;;;;;;;;;;;;;;;;;4858280;29;20316;-78
2021/12/18 11:07:13;;;;;;;;;;;;;;;;;;4874719;29;19923;-78
2021/12/18 11:09:59;;;;;;;;;;;;;;;;;;4859188;29;19908;-77
2021/12/18 11:15:20;;;;;;;;;;;;;;;;;;4858506;29;19908;-78
2021/12/18 11:17:45;;;;;;;;;;;;;;;;;;4858839;29;19984;-78
2021/12/18 11:20:11;;;;;;;;;;;;;;;;;;4858197;29;19908;-78
2021/12/18 11:22:37;;;;;;;;;;;;;;;;;;4858775;29;20394;-79
2021/12/18 11:25:03;;;;;;;;;;;;;;;;;;4858503;29;19916;-78
2021/12/18 11:27:32;;;;;;;;;;;;;;;;;;4858176;29;19904;-83
2021/12/18 11:29:58;;;;;;;;;;;;;;;;;;4858485;29;20002;-78
2021/12/18 11:32:24;;;;;;;;;;;;;;;;;;4860261;29;20488;-78
2021/12/18 11:34:50;;;;;;;;;;;;;;;;;;4859838;29;20007;-78
2021/12/18 11:37:16;;;;;;;;;;;;;;;;;;4859260;29;20402;-78
2021/12/18 11:39:43;;;;;;;;;;;;;;;;;;4859780;29;19915;-83
2021/12/18 11:42:09;;;;;;;;;;;;;;;;;;4859829;29;19992;-78
2021/12/18 11:44:35;;;;;;;;;;;;;;;;;;4859762;29;20410;-78
2021/12/18 11:47:01;;;;;;;;;;;;;;;;;;4843901;29;19916;-78
2021/12/18 11:49:27;;;;;;;;;;;;;;;;;;4859688;29;19916;-78
2021/12/18 11:51:53;;;;;;;;;;;;;;;;;;4857237;29;20008;-78
2021/12/18 11:54:19;;;;;;;;;;;;;;;;;;4871743;29;19923;-79
2021/12/18 11:56:45;;;;;;;;;;;;;;;;;;4859981;29;19923;-81
2021/12/18 11:59:11;;;;;;;;;;;;;;;;;;4861786;29;19968;-80
2021/12/18 12:01:37;;;;;;;;;;;;;;;;;;4875396;29;19912;-88
2021/12/18 12:04:03;;;;;;;;;;;;;;;;;;4860128;29;19909;-81
2021/12/18 12:06:30;;;;;;;;;;;;;;;;;;4860062;29;19980;-80
2021/12/18 12:08:57;;;;;;;;;;;;;;;;;;4857846;29;19908;-81
2021/12/18 12:11:26;;;;;;;;;;;;;;;;;;4859096;29;19908;-80
2021/12/18 12:13:52;;;;;;;;;;;;;;;;;;4858917;29;20281;-80
2021/12/18 12:16:18;;;;;;;;;;;;;;;;;;4852708;29;20049;-82
2021/12/18 12:18:43;;;;;;;;;;;;;;;;;;4868289;29;19919;-78
2021/12/18 12:21:09;;;;;;;;;;;;;;;;;;4854118;29;19919;-80
2021/12/18 12:23:35;;;;;;;;;;;;;;;;;;4856848;29;19908;-83
2021/12/18 12:26:01;;;;;;;;;;;;;;;;;;4843299;29;19940;-88
2021/12/18 12:28:27;;;;;;;;;;;;;;;;;;4849385;29;19912;-79
2021/12/18 12:30:53;;;;;;;;;;;;;;;;;;4851769;29;19956;-79
2021/12/18 12:33:19;;;;;;;;;;;;;;;;;;4856921;29;19908;-79
2021/12/18 12:35:45;;;;;;;;;;;;;;;;;;4848217;29;19998;-78
2021/12/18 12:38:11;;;;;;;;;;;;;;;;;;4855140;29;20289;-79
2021/12/18 12:40:37;;;;;;;;;;;;;;;;;;4852006;29;19908;-79
2021/12/18 12:43:02;;;;;;;;;;;;;;;;;;4851415;29;19915;-79
2021/12/18 12:45:28;;;;;;;;;;;;;;;;;;4848187;29;19939;-79
2021/12/18 12:47:54;;;;;;;;;;;;;;;;;;4853553;29;19909;-79
2021/12/18 12:50:20;;;;;;;;;;;;;;;;;;4856225;29;19912;-82
2021/12/18 12:52:46;;;;;;;;;;;;;;;;;;4853573;29;20285;-79
2021/12/18 12:55:12;;;;;;;;;;;;;;;;;;4858847;29;20288;-79
2021/12/18 12:57:38;;;;;;;;;;;;;;;;;;4859649;29;19927;-80
2021/12/18 13:00:04;;;;;;;;;;;;;;;;;;4858704;29;19916;-80
2021/12/18 13:02:30;;;;;;;;;;;;;;;;;;4860952;29;19908;-80
2021/12/18 13:04:56;;;;;;;;;;;;;;;;;;4859612;29;19908;-80
2021/12/18 13:07:21;;;;;;;;;;;;;;;;;;4857903;29;20007;-80
2021/12/18 13:09:49;;;;;;;;;;;;;;;;;;4858776;29;20412;-80
2021/12/18 13:12:15;;;;;;;;;;;;;;;;;;4874382;29;20264;-80
2021/12/18 13:14:41;;;;;;;;;;;;;;;;;;4853529;29;19908;-81
2021/12/18 13:17:07;;;;;;;;;;;;;;;;;;4852053;29;19919;-80
2021/12/18 13:19:33;;;;;;;;;;;;;;;;;;4853941;29;20322;-81
2021/12/18 13:21:58;;;;;;;;;;;;;;;;;;4852062;29;19912;-81
2021/12/18 13:24:24;;;;;;;;;;;;;;;;;;4853820;29;19933;-82
2021/12/18 13:26:50;;;;;;;;;;;;;;;;;;4857552;29;19919;-81
2021/12/18 13:29:16;;;;;;;;;;;;;;;;;;4868436;29;19912;-81
2021/12/18 13:31:44;;;;;;;;;;;;;;;;;;4851508;29;19956;-81
2021/12/18 13:34:10;;;;;;;;;;;;;;;;;;4851318;29;19955;-81
2021/12/18 13:36:36;;;;;;;;;;;;;;;;;;4858301;29;19947;-80
2021/12/18 13:39:02;;;;;;;;;;;;;;;;;;4859793;29;20675;-81
2021/12/18 13:41:28;;;;;;;;;;;;;;;;;;4859858;29;19923;-81
2021/12/18 13:43:54;;;;;;;;;;;;;;;;;;4859757;29;19908;-80
2021/12/18 13:46:20;;;;;;;;;;;;;;;;;;4859967;29;20372;-81
2021/12/18 13:48:45;;;;;;;;;;;;;;;;;;4859669;29;20778;-80
2021/12/18 13:51:11;;;;;;;;;;;;;;;;;;4859708;29;19905;-79
2021/12/18 13:53:37;;;;;;;;;;;;;;;;;;4859010;29;19971;-80
2021/12/18 13:56:05;;;;;;;;;;;;;;;;;;4858389;29;19915;-81
2021/12/18 13:58:31;;;;;;;;;;;;;;;;;;4859537;29;19920;-80
2021/12/18 14:00:57;;;;;;;;;;;;;;;;;;4859724;29;20529;-80
2021/12/18 14:03:23;;;;;;;;;;;;;;;;;;4859687;29;19915;-80
2021/12/18 14:05:49;;;;;;;;;;;;;;;;;;4859175;29;19975;-80
2021/12/18 14:08:15;;;;;;;;;;;;;;;;;;4859403;29;19999;-80
2021/12/18 14:10:41;;;;;;;;;;;;;;;;;;4859555;29;19908;-80
2021/12/18 14:13:07;;;;;;;;;;;;;;;;;;4859517;29;19992;-80
2021/12/18 14:15:33;;;;;;;;;;;;;;;;;;4859203;29;20273;-80
2021/12/18 14:18:00;;;;;;;;;;;;;;;;;;4873738;29;19915;-81
2021/12/18 14:20:26;;;;;;;;;;;;;;;;;;4858278;29;19919;-80
2021/12/18 14:22:53;;;;;;;;;;;;;;;;;;4858699;29;19916;-80
2021/12/18 14:25:19;;;;;;;;;;;;;;;;;;4859728;29;19931;-80
2021/12/18 14:27:45;;;;;;;;;;;;;;;;;;4859108;29;20369;-80
2021/12/18 14:30:11;;;;;;;;;;;;;;;;;;4859381;29;20325;-80
2021/12/18 14:32:37;;;;;;;;;;;;;;;;;;4857148;29;19912;-80
2021/12/18 14:35:03;;;;;;;;;;;;;;;;;;4860000;29;20660;-81
2021/12/18 14:37:29;;;;;;;;;;;;;;;;;;4859492;29;19916;-80
2021/12/18 14:39:55;;;;;;;;;;;;;;;;;;4876662;29;19915;-80
2021/12/18 14:42:27;;;;;;;;;;;;;;;;;;4863467;29;20289;-80
2021/12/18 14:44:55;;;;;;;;;;;;;;;;;;4877698;29;20397;-80
2021/12/18 14:47:21;;;;;;;;;;;;;;;;;;4875011;29;20372;-80
2021/12/18 14:49:47;;;;;;;;;;;;;;;;;;4855666;29;19916;-81
2021/12/18 14:52:13;;;;;;;;;;;;;;;;;;4859862;29;20365;-81
2021/12/18 14:54:39;;;;;;;;;;;;;;;;;;4853865;29;19937;-80
2021/12/18 14:57:05;;;;;;;;;;;;;;;;;;4876076;29;19920;-80
2021/12/18 14:59:30;;;;;;;;;;;;;;;;;;4852028;29;19908;-80
2021/12/18 15:01:56;;;;;;;;;;;;;;;;;;4854524;29;19919;-80
2021/12/18 15:04:22;;;;;;;;;;;;;;;;;;4852147;29;19916;-80
2021/12/18 15:06:51;;;;;;;;;;;;;;;;;;4868342;29;20347;-81
2021/12/18 15:09:17;;;;;;;;;;;;;;;;;;4852019;29;19912;-80
2021/12/18 15:11:46;;;;;;;;;;;;;;;;;;4852494;29;20356;-80
2021/12/18 15:14:12;;;;;;;;;;;;;;;;;;4849378;29;19916;-80
2021/12/18 15:16:37;;;;;;;;;;;;;;;;;;4854415;29;19923;-80
2021/12/18 15:19:03;;;;;;;;;;;;;;;;;;4854315;29;19928;-79
2021/12/18 15:21:29;;;;;;;;;;;;;;;;;;4850851;29;19916;-79
2021/12/18 15:23:55;;;;;;;;;;;;;;;;;;4851782;29;19915;-79
2021/12/18 15:26:21;;;;;;;;;;;;;;;;;;4854186;29;20397;-79
2021/12/18 15:28:47;;;;;;;;;;;;;;;;;;4861732;29;19974;-78
2021/12/18 15:31:13;;;;;;;;;;;;;;;;;;4863189;29;19908;-78
2021/12/18 15:33:39;;;;;;;;;;;;;;;;;;4862359;29;19908;-79
2021/12/18 15:36:05;;;;;;;;;;;;;;;;;;4862429;29;19931;-79
2021/12/18 15:38:31;;;;;;;;;;;;;;;;;;4851025;29;19912;-79
2021/12/18 15:40:57;;;;;;;;;;;;;;;;;;4844681;29;19916;-79
2021/12/18 15:43:23;;;;;;;;;;;;;;;;;;4860768;29;19908;-79
2021/12/18 15:45:48;;;;;;;;;;;;;;;;;;4851887;29;20289;-79
2021/12/18 15:48:14;;;;;;;;;;;;;;;;;;4857015;29;19914;-78
2021/12/18 15:50:40;;;;;;;;;;;;;;;;;;4862238;29;20387;-79
2021/12/18 15:53:06;;;;;;;;;;;;;;;;;;4876820;29;19908;-77
2021/12/18 15:55:32;;;;;;;;;;;;;;;;;;4863194;29;19912;-80
2021/12/18 15:57:58;;;;;;;;;;;;;;;;;;4861977;29;19928;-80
2021/12/18 16:00:24;;;;;;;;;;;;;;;;;;4862746;29;19919;-79
2021/12/18 16:02:52;;;;;;;;;;;;;;;;;;4861224;29;19908;-80
2021/12/18 16:05:22;;;;;;;;;;;;;;;;;;4862020;29;20337;-78
2021/12/18 16:07:48;;;;;;;;;;;;;;;;;;4853330;29;19912;-80
2021/12/18 16:10:14;;;;;;;;;;;;;;;;;;4859649;29;19908;-80
2021/12/18 18:25:06;;;;;;;;;;;;;;;;;;5254735;24;19931;-79
2021/12/18 18:27:32;;;;;;;;;;;;;;;;;;4881049;29;19967;-80
2021/12/18 18:29:58;;;;;;;;;;;;;;;;;;4879944;29;20303;-79
2021/12/18 18:32:27;;;;;;;;;;;;;;;;;;4880569;29;20383;-79
2021/12/18 18:34:54;;;;;;;;;;;;;;;;;;4877640;29;19912;-78
2021/12/18 18:37:20;;;;;;;;;;;;;;;;;;4880747;29;19911;-79
2021/12/18 18:39:46;;;;;;;;;;;;;;;;;;4880929;29;19907;-79
2021/12/18 18:42:14;;;;;;;;;;;;;;;;;;4879094;29;19936;-78
2021/12/18 18:44:40;;;;;;;;;;;;;;;;;;4879834;29;19939;-79
2021/12/18 18:47:14;;;;;;;;;;;;;;;;;;4881019;29;19922;-78
2021/12/18 18:49:39;;;;;;;;;;;;;;;;;;4879430;29;19915;-79
2021/12/18 18:52:08;;;;;;;;;;;;;;;;;;4881244;29;19912;-79
2021/12/18 18:54:34;;;;;;;;;;;;;;;;;;4880716;29;19912;-79
2021/12/18 18:57:08;;;;;;;;;;;;;;;;;;4880691;29;19923;-78
2021/12/18 18:59:44;;;;;;;;;;;;;;;;;;4881658;29;20291;-78
2021/12/18 19:02:10;;;;;;;;;;;;;;;;;;4881675;29;19907;-79
2021/12/18 19:04:36;;;;;;;;;;;;;;;;;;4881502;29;19911;-78
2021/12/18 19:07:03;;;;;;;;;;;;;;;;;;4880406;29;19908;-78
2021/12/18 19:09:29;;;;;;;;;;;;;;;;;;4879419;29;20308;-78
2021/12/18 19:11:58;;;;;;;;;;;;;;;;;;4879666;29;20394;-78
2021/12/18 19:14:31;;;;;;;;;;;;;;;;;;4881378;29;19990;-77
2021/12/18 19:16:58;;;;;;;;;;;;;;;;;;4878915;29;20002;-79
2021/12/18 19:19:35;;;;;;;;;;;;;;;;;;4881361;29;19963;-77
2021/12/18 19:22:01;;;;;;;;;;;;;;;;;;4881105;29;19914;-77
2021/12/18 19:24:27;;;;;;;;;;;;;;;;;;4879374;29;19919;-77
2021/12/18 19:26:53;;;;;;;;;;;;;;;;;;4880213;29;19912;-77
2021/12/18 19:29:19;;;;;;;;;;;;;;;;;;4872386;29;19908;-77
2021/12/18 19:31:54;;;;;;;;;;;;;;;;;;4874605;29;19915;-77
2021/12/18 19:34:23;;;;;;;;;;;;;;;;;;4875950;29;19963;-77